sensor_id;sensor_type;location;lat;lon;timestamp;P1;durP1;ratioP1;P2;durP2;ratioP2
43449;SDS011;29041;42.266;23.110;2023-05-10T00:01:55;1.73;;;1.00;;
43449;SDS011;29041;42.266;23.110;2023-05-10T00:04:41;1.38;;;1.10;;
43449;SDS011;29041;42.266;23.110;2023-05-10T00:07:28;1.58;;;1.23;;
43449;SDS011;29041;42.266;23.110;2023-05-10T00:10:15;1.42;;;0.98;;
43449;SDS011;29041;42.266;23.110;2023-05-10T00:13:02;1.08;;;0.88;;
43449;SDS011;29041;42.266;23.110;2023-05-10T00:15:52;1.85;;;1.58;;
43449;SDS011;29041;42.266;23.110;2023-05-10T00:18:39;2.35;;;1.45;;
43449;SDS011;29041;42.266;23.110;2023-05-10T00:21:26;1.40;;;1.30;;
43449;SDS011;29041;42.266;23.110;2023-05-10T00:24:21;1.85;;;1.30;;
43449;SDS011;29041;42.266;23.110;2023-05-10T00:27:08;2.05;;;1.25;;
43449;SDS011;29041;42.266;23.110;2023-05-10T00:30:08;2.85;;;1.20;;
43449;SDS011;29041;42.266;23.110;2023-05-10T00:32:56;1.83;;;1.08;;
43449;SDS011;29041;42.266;23.110;2023-05-10T00:35:43;2.65;;;1.30;;
43449;SDS011;29041;42.266;23.110;2023-05-10T00:38:30;1.55;;;1.25;;
43449;SDS011;29041;42.266;23.110;2023-05-10T00:41:17;1.77;;;1.15;;
43449;SDS011;29041;42.266;23.110;2023-05-10T00:44:04;1.27;;;1.17;;
43449;SDS011;29041;42.266;23.110;2023-05-10T00:46:51;2.03;;;1.60;;
43449;SDS011;29041;42.266;23.110;2023-05-10T00:49:41;1.60;;;1.15;;
43449;SDS011;29041;42.266;23.110;2023-05-10T00:52:28;1.52;;;1.13;;
43449;SDS011;29041;42.266;23.110;2023-05-10T00:55:15;1.63;;;1.33;;
43449;SDS011;29041;42.266;23.110;2023-05-10T00:58:02;1.85;;;1.35;;
43449;SDS011;29041;42.266;23.110;2023-05-10T01:00:50;2.45;;;1.70;;
43449;SDS011;29041;42.266;23.110;2023-05-10T01:03:37;2.30;;;1.45;;
43449;SDS011;29041;42.266;23.110;2023-05-10T01:06:29;2.97;;;1.88;;
43449;SDS011;29041;42.266;23.110;2023-05-10T01:09:16;1.85;;;1.60;;
43449;SDS011;29041;42.266;23.110;2023-05-10T01:12:05;1.80;;;1.60;;
43449;SDS011;29041;42.266;23.110;2023-05-10T01:14:53;1.50;;;1.38;;
43449;SDS011;29041;42.266;23.110;2023-05-10T01:17:40;3.38;;;2.22;;
43449;SDS011;29041;42.266;23.110;2023-05-10T01:20:42;2.72;;;1.38;;
43449;SDS011;29041;42.266;23.110;2023-05-10T01:23:35;2.28;;;1.50;;
43449;SDS011;29041;42.266;23.110;2023-05-10T01:26:34;1.50;;;1.35;;
43449;SDS011;29041;42.266;23.110;2023-05-10T01:29:29;1.20;;;0.88;;
43449;SDS011;29041;42.266;23.110;2023-05-10T01:32:22;1.33;;;1.05;;
43449;SDS011;29041;42.266;23.110;2023-05-10T01:35:13;1.13;;;1.00;;
43449;SDS011;29041;42.266;23.110;2023-05-10T01:38:04;1.80;;;1.00;;
43449;SDS011;29041;42.266;23.110;2023-05-10T01:41:00;1.13;;;1.02;;
43449;SDS011;29041;42.266;23.110;2023-05-10T01:43:54;1.98;;;0.75;;
43449;SDS011;29041;42.266;23.110;2023-05-10T01:46:42;1.50;;;1.15;;
43449;SDS011;29041;42.266;23.110;2023-05-10T01:49:31;1.63;;;1.05;;
43449;SDS011;29041;42.266;23.110;2023-05-10T01:52:20;1.95;;;1.40;;
43449;SDS011;29041;42.266;23.110;2023-05-10T01:55:09;2.20;;;1.50;;
43449;SDS011;29041;42.266;23.110;2023-05-10T01:58:00;1.38;;;0.95;;
43449;SDS011;29041;42.266;23.110;2023-05-10T02:00:48;1.75;;;1.05;;
43449;SDS011;29041;42.266;23.110;2023-05-10T02:03:36;1.50;;;1.20;;
43449;SDS011;29041;42.266;23.110;2023-05-10T02:06:26;1.67;;;1.55;;
43449;SDS011;29041;42.266;23.110;2023-05-10T02:09:13;2.45;;;1.30;;
43449;SDS011;29041;42.266;23.110;2023-05-10T02:12:01;1.50;;;1.02;;
43449;SDS011;29041;42.266;23.110;2023-05-10T02:14:49;3.08;;;1.20;;
43449;SDS011;29041;42.266;23.110;2023-05-10T02:17:38;1.77;;;1.38;;
43449;SDS011;29041;42.266;23.110;2023-05-10T02:20:25;1.70;;;1.25;;
43449;SDS011;29041;42.266;23.110;2023-05-10T02:23:16;1.63;;;1.38;;
43449;SDS011;29041;42.266;23.110;2023-05-10T02:28:57;2.22;;;1.13;;
43449;SDS011;29041;42.266;23.110;2023-05-10T02:31:45;1.60;;;1.48;;
43449;SDS011;29041;42.266;23.110;2023-05-10T02:34:32;2.20;;;1.52;;
43449;SDS011;29041;42.266;23.110;2023-05-10T02:37:19;2.58;;;1.42;;
43449;SDS011;29041;42.266;23.110;2023-05-10T02:40:08;1.60;;;1.50;;
43449;SDS011;29041;42.266;23.110;2023-05-10T02:42:56;2.10;;;1.63;;
43449;SDS011;29041;42.266;23.110;2023-05-10T02:45:44;1.55;;;1.10;;
43449;SDS011;29041;42.266;23.110;2023-05-10T02:48:33;2.47;;;1.45;;
43449;SDS011;29041;42.266;23.110;2023-05-10T02:51:20;2.72;;;1.98;;
43449;SDS011;29041;42.266;23.110;2023-05-10T02:54:11;1.77;;;1.27;;
43449;SDS011;29041;42.266;23.110;2023-05-10T02:57:00;2.88;;;1.83;;
43449;SDS011;29041;42.266;23.110;2023-05-10T02:59:50;3.00;;;2.10;;
43449;SDS011;29041;42.266;23.110;2023-05-10T03:02:37;4.45;;;2.10;;
43449;SDS011;29041;42.266;23.110;2023-05-10T03:05:24;5.68;;;3.72;;
43449;SDS011;29041;42.266;23.110;2023-05-10T03:08:11;5.53;;;3.08;;
43449;SDS011;29041;42.266;23.110;2023-05-10T03:11:04;4.15;;;2.72;;
43449;SDS011;29041;42.266;23.110;2023-05-10T03:13:56;2.30;;;2.08;;
43449;SDS011;29041;42.266;23.110;2023-05-10T03:16:46;4.85;;;2.72;;
43449;SDS011;29041;42.266;23.110;2023-05-10T03:19:35;7.35;;;2.40;;
43449;SDS011;29041;42.266;23.110;2023-05-10T03:22:25;3.30;;;1.88;;
43449;SDS011;29041;42.266;23.110;2023-05-10T03:25:12;0.80;;;0.70;;
43449;SDS011;29041;42.266;23.110;2023-05-10T03:28:01;3.33;;;1.90;;
43449;SDS011;29041;42.266;23.110;2023-05-10T03:30:52;4.35;;;2.17;;
43449;SDS011;29041;42.266;23.110;2023-05-10T03:33:45;2.03;;;1.77;;
43449;SDS011;29041;42.266;23.110;2023-05-10T03:36:32;3.20;;;2.33;;
43449;SDS011;29041;42.266;23.110;2023-05-10T03:39:19;3.38;;;2.47;;
43449;SDS011;29041;42.266;23.110;2023-05-10T03:42:06;3.40;;;2.10;;
43449;SDS011;29041;42.266;23.110;2023-05-10T03:44:53;2.80;;;2.13;;
43449;SDS011;29041;42.266;23.110;2023-05-10T03:47:42;3.50;;;2.17;;
43449;SDS011;29041;42.266;23.110;2023-05-10T03:50:28;3.67;;;2.28;;
43449;SDS011;29041;42.266;23.110;2023-05-10T03:53:15;2.50;;;1.65;;
43449;SDS011;29041;42.266;23.110;2023-05-10T03:56:03;2.33;;;1.60;;
43449;SDS011;29041;42.266;23.110;2023-05-10T03:58:50;4.18;;;1.73;;
43449;SDS011;29041;42.266;23.110;2023-05-10T04:01:37;2.58;;;2.25;;
43449;SDS011;29041;42.266;23.110;2023-05-10T04:04:25;2.00;;;1.80;;
43449;SDS011;29041;42.266;23.110;2023-05-10T04:07:12;3.95;;;2.47;;
43449;SDS011;29041;42.266;23.110;2023-05-10T04:09:59;2.75;;;2.38;;
43449;SDS011;29041;42.266;23.110;2023-05-10T04:12:45;3.28;;;1.83;;
43449;SDS011;29041;42.266;23.110;2023-05-10T04:15:32;2.40;;;1.90;;
43449;SDS011;29041;42.266;23.110;2023-05-10T04:18:19;2.75;;;2.25;;
43449;SDS011;29041;42.266;23.110;2023-05-10T04:21:12;3.70;;;2.20;;
43449;SDS011;29041;42.266;23.110;2023-05-10T04:23:59;2.30;;;1.77;;
43449;SDS011;29041;42.266;23.110;2023-05-10T04:26:45;2.88;;;1.92;;
43449;SDS011;29041;42.266;23.110;2023-05-10T04:29:32;4.93;;;2.50;;
43449;SDS011;29041;42.266;23.110;2023-05-10T04:32:19;3.20;;;2.40;;
43449;SDS011;29041;42.266;23.110;2023-05-10T04:35:06;4.03;;;2.83;;
43449;SDS011;29041;42.266;23.110;2023-05-10T04:37:56;2.78;;;2.58;;
43449;SDS011;29041;42.266;23.110;2023-05-10T04:40:43;3.70;;;2.28;;
43449;SDS011;29041;42.266;23.110;2023-05-10T04:43:30;3.55;;;3.25;;
43449;SDS011;29041;42.266;23.110;2023-05-10T04:46:17;2.05;;;1.85;;
43449;SDS011;29041;42.266;23.110;2023-05-10T04:49:03;1.80;;;1.67;;
43449;SDS011;29041;42.266;23.110;2023-05-10T04:51:51;4.95;;;2.40;;
43449;SDS011;29041;42.266;23.110;2023-05-10T04:54:39;4.32;;;2.95;;
43449;SDS011;29041;42.266;23.110;2023-05-10T04:57:26;6.07;;;3.90;;
43449;SDS011;29041;42.266;23.110;2023-05-10T05:00:13;2.33;;;2.13;;
43449;SDS011;29041;42.266;23.110;2023-05-10T05:03:00;2.47;;;2.05;;
43449;SDS011;29041;42.266;23.110;2023-05-10T05:05:47;5.82;;;5.13;;
43449;SDS011;29041;42.266;23.110;2023-05-10T05:08:34;4.90;;;2.50;;
43449;SDS011;29041;42.266;23.110;2023-05-10T05:11:24;3.38;;;2.13;;
43449;SDS011;29041;42.266;23.110;2023-05-10T05:14:11;4.70;;;3.10;;
43449;SDS011;29041;42.266;23.110;2023-05-10T05:16:58;7.03;;;3.33;;
43449;SDS011;29041;42.266;23.110;2023-05-10T05:19:45;2.53;;;2.05;;
43449;SDS011;29041;42.266;23.110;2023-05-10T05:22:32;3.72;;;2.63;;
43449;SDS011;29041;42.266;23.110;2023-05-10T05:25:22;4.65;;;3.05;;
43449;SDS011;29041;42.266;23.110;2023-05-10T05:28:13;3.17;;;1.45;;
43449;SDS011;29041;42.266;23.110;2023-05-10T05:31:00;2.70;;;1.85;;
43449;SDS011;29041;42.266;23.110;2023-05-10T05:33:47;2.90;;;2.63;;
43449;SDS011;29041;42.266;23.110;2023-05-10T05:36:35;3.58;;;2.13;;
43449;SDS011;29041;42.266;23.110;2023-05-10T05:39:23;3.90;;;2.92;;
43449;SDS011;29041;42.266;23.110;2023-05-10T05:42:10;5.28;;;2.88;;
43449;SDS011;29041;42.266;23.110;2023-05-10T05:45:00;3.45;;;2.08;;
43449;SDS011;29041;42.266;23.110;2023-05-10T05:47:47;3.53;;;2.65;;
43449;SDS011;29041;42.266;23.110;2023-05-10T05:50:34;2.65;;;2.22;;
43449;SDS011;29041;42.266;23.110;2023-05-10T05:53:21;4.10;;;2.15;;
43449;SDS011;29041;42.266;23.110;2023-05-10T05:56:08;4.97;;;2.58;;
43449;SDS011;29041;42.266;23.110;2023-05-10T05:58:55;4.93;;;2.20;;
43449;SDS011;29041;42.266;23.110;2023-05-10T06:01:44;5.03;;;2.92;;
43449;SDS011;29041;42.266;23.110;2023-05-10T06:04:30;4.57;;;2.15;;
43449;SDS011;29041;42.266;23.110;2023-05-10T06:07:17;5.38;;;3.13;;
43449;SDS011;29041;42.266;23.110;2023-05-10T06:10:05;5.65;;;2.67;;
43449;SDS011;29041;42.266;23.110;2023-05-10T06:12:52;3.97;;;2.83;;
43449;SDS011;29041;42.266;23.110;2023-05-10T06:15:39;2.92;;;1.55;;
43449;SDS011;29041;42.266;23.110;2023-05-10T06:18:33;5.30;;;2.65;;
43449;SDS011;29041;42.266;23.110;2023-05-10T06:21:20;4.40;;;2.83;;
43449;SDS011;29041;42.266;23.110;2023-05-10T06:24:07;5.32;;;2.92;;
43449;SDS011;29041;42.266;23.110;2023-05-10T06:26:54;3.80;;;2.85;;
43449;SDS011;29041;42.266;23.110;2023-05-10T06:29:45;7.43;;;2.35;;
43449;SDS011;29041;42.266;23.110;2023-05-10T06:32:33;3.95;;;2.53;;
43449;SDS011;29041;42.266;23.110;2023-05-10T06:35:22;3.17;;;2.10;;
43449;SDS011;29041;42.266;23.110;2023-05-10T06:38:10;2.50;;;2.20;;
43449;SDS011;29041;42.266;23.110;2023-05-10T06:40:57;3.75;;;2.25;;
43449;SDS011;29041;42.266;23.110;2023-05-10T06:43:44;3.53;;;2.58;;
43449;SDS011;29041;42.266;23.110;2023-05-10T06:46:31;4.20;;;2.13;;
43449;SDS011;29041;42.266;23.110;2023-05-10T06:49:18;2.25;;;1.98;;
43449;SDS011;29041;42.266;23.110;2023-05-10T06:52:07;5.35;;;2.85;;
43449;SDS011;29041;42.266;23.110;2023-05-10T06:54:54;4.50;;;2.78;;
43449;SDS011;29041;42.266;23.110;2023-05-10T06:57:41;7.53;;;3.90;;
43449;SDS011;29041;42.266;23.110;2023-05-10T07:00:28;5.43;;;2.60;;
43449;SDS011;29041;42.266;23.110;2023-05-10T07:03:15;4.90;;;3.03;;
43449;SDS011;29041;42.266;23.110;2023-05-10T07:06:02;3.35;;;2.20;;
43449;SDS011;29041;42.266;23.110;2023-05-10T07:08:51;5.63;;;3.03;;
43449;SDS011;29041;42.266;23.110;2023-05-10T07:11:38;3.92;;;2.05;;
43449;SDS011;29041;42.266;23.110;2023-05-10T07:14:28;4.07;;;2.60;;
43449;SDS011;29041;42.266;23.110;2023-05-10T07:17:14;2.67;;;2.10;;
43449;SDS011;29041;42.266;23.110;2023-05-10T07:20:02;8.55;;;2.80;;
43449;SDS011;29041;42.266;23.110;2023-05-10T07:22:50;5.95;;;2.22;;
43449;SDS011;29041;42.266;23.110;2023-05-10T07:25:39;5.47;;;2.40;;
43449;SDS011;29041;42.266;23.110;2023-05-10T07:28:26;5.70;;;3.17;;
43449;SDS011;29041;42.266;23.110;2023-05-10T07:31:13;4.78;;;2.60;;
43449;SDS011;29041;42.266;23.110;2023-05-10T07:33:59;3.80;;;3.08;;
43449;SDS011;29041;42.266;23.110;2023-05-10T07:36:46;6.65;;;2.80;;
43449;SDS011;29041;42.266;23.110;2023-05-10T07:39:33;5.68;;;3.40;;
43449;SDS011;29041;42.266;23.110;2023-05-10T07:42:21;3.53;;;3.10;;
43449;SDS011;29041;42.266;23.110;2023-05-10T07:45:09;6.32;;;3.55;;
43449;SDS011;29041;42.266;23.110;2023-05-10T07:47:56;4.82;;;2.90;;
43449;SDS011;29041;42.266;23.110;2023-05-10T07:50:43;4.32;;;2.92;;
43449;SDS011;29041;42.266;23.110;2023-05-10T07:53:30;4.97;;;3.47;;
43449;SDS011;29041;42.266;23.110;2023-05-10T07:56:21;4.57;;;3.38;;
43449;SDS011;29041;42.266;23.110;2023-05-10T07:59:14;4.50;;;3.20;;
43449;SDS011;29041;42.266;23.110;2023-05-10T08:02:05;3.50;;;2.70;;
43449;SDS011;29041;42.266;23.110;2023-05-10T08:04:53;5.47;;;3.40;;
43449;SDS011;29041;42.266;23.110;2023-05-10T08:07:41;8.77;;;3.08;;
43449;SDS011;29041;42.266;23.110;2023-05-10T08:10:29;4.32;;;3.20;;
43449;SDS011;29041;42.266;23.110;2023-05-10T08:13:16;6.60;;;4.00;;
43449;SDS011;29041;42.266;23.110;2023-05-10T08:16:05;5.97;;;3.88;;
43449;SDS011;29041;42.266;23.110;2023-05-10T08:18:52;7.18;;;3.53;;
43449;SDS011;29041;42.266;23.110;2023-05-10T08:21:40;5.25;;;3.78;;
43449;SDS011;29041;42.266;23.110;2023-05-10T08:24:27;7.18;;;3.30;;
43449;SDS011;29041;42.266;23.110;2023-05-10T08:27:14;5.13;;;3.28;;
43449;SDS011;29041;42.266;23.110;2023-05-10T08:30:07;5.85;;;3.45;;
43449;SDS011;29041;42.266;23.110;2023-05-10T08:32:58;8.32;;;3.80;;
43449;SDS011;29041;42.266;23.110;2023-05-10T08:35:45;4.80;;;3.30;;
43449;SDS011;29041;42.266;23.110;2023-05-10T08:38:32;5.03;;;3.35;;
43449;SDS011;29041;42.266;23.110;2023-05-10T08:41:20;4.50;;;3.25;;
43449;SDS011;29041;42.266;23.110;2023-05-10T08:44:09;4.50;;;3.08;;
43449;SDS011;29041;42.266;23.110;2023-05-10T08:46:56;6.80;;;3.42;;
43449;SDS011;29041;42.266;23.110;2023-05-10T08:49:45;5.05;;;3.15;;
43449;SDS011;29041;42.266;23.110;2023-05-10T08:52:35;8.77;;;5.28;;
43449;SDS011;29041;42.266;23.110;2023-05-10T08:55:25;5.30;;;3.65;;
43449;SDS011;29041;42.266;23.110;2023-05-10T08:58:12;4.38;;;3.17;;
43449;SDS011;29041;42.266;23.110;2023-05-10T09:00:59;5.07;;;3.67;;
43449;SDS011;29041;42.266;23.110;2023-05-10T09:03:46;7.18;;;3.42;;
43449;SDS011;29041;42.266;23.110;2023-05-10T09:06:35;6.28;;;3.40;;
43449;SDS011;29041;42.266;23.110;2023-05-10T09:09:22;4.90;;;3.25;;
43449;SDS011;29041;42.266;23.110;2023-05-10T09:12:09;5.75;;;4.35;;
43449;SDS011;29041;42.266;23.110;2023-05-10T09:14:57;4.28;;;3.08;;
43449;SDS011;29041;42.266;23.110;2023-05-10T09:17:45;7.13;;;4.22;;
43449;SDS011;29041;42.266;23.110;2023-05-10T09:20:32;4.85;;;3.55;;
43449;SDS011;29041;42.266;23.110;2023-05-10T09:23:21;6.38;;;3.72;;
43449;SDS011;29041;42.266;23.110;2023-05-10T09:26:08;3.72;;;2.58;;
43449;SDS011;29041;42.266;23.110;2023-05-10T09:28:56;6.53;;;4.13;;
43449;SDS011;29041;42.266;23.110;2023-05-10T09:31:43;3.88;;;3.38;;
43449;SDS011;29041;42.266;23.110;2023-05-10T09:34:32;11.50;;;4.43;;
43449;SDS011;29041;42.266;23.110;2023-05-10T09:37:20;5.85;;;3.95;;
43449;SDS011;29041;42.266;23.110;2023-05-10T09:40:18;7.47;;;4.00;;
43449;SDS011;29041;42.266;23.110;2023-05-10T09:43:06;5.57;;;4.05;;
43449;SDS011;29041;42.266;23.110;2023-05-10T09:45:53;7.30;;;3.55;;
43449;SDS011;29041;42.266;23.110;2023-05-10T09:48:41;5.15;;;3.90;;
43449;SDS011;29041;42.266;23.110;2023-05-10T09:54:53;7.10;;;4.43;;
43449;SDS011;29041;42.266;23.110;2023-05-10T09:57:42;7.63;;;5.07;;
43449;SDS011;29041;42.266;23.110;2023-05-10T10:00:33;4.28;;;3.33;;
43449;SDS011;29041;42.266;23.110;2023-05-10T10:03:21;6.23;;;4.30;;
43449;SDS011;29041;42.266;23.110;2023-05-10T10:06:09;7.45;;;4.18;;
43449;SDS011;29041;42.266;23.110;2023-05-10T10:08:56;6.57;;;3.90;;
43449;SDS011;29041;42.266;23.110;2023-05-10T10:11:43;6.32;;;3.83;;
43449;SDS011;29041;42.266;23.110;2023-05-10T10:14:31;5.38;;;4.07;;
43449;SDS011;29041;42.266;23.110;2023-05-10T10:17:18;9.23;;;5.20;;
43449;SDS011;29041;42.266;23.110;2023-05-10T10:20:06;6.63;;;4.35;;
43449;SDS011;29041;42.266;23.110;2023-05-10T10:22:57;8.20;;;4.32;;
43449;SDS011;29041;42.266;23.110;2023-05-10T10:25:52;5.50;;;4.13;;
43449;SDS011;29041;42.266;23.110;2023-05-10T10:28:43;8.25;;;4.95;;
43449;SDS011;29041;42.266;23.110;2023-05-10T10:31:36;13.82;;;5.53;;
43449;SDS011;29041;42.266;23.110;2023-05-10T10:34:27;6.95;;;4.32;;
43449;SDS011;29041;42.266;23.110;2023-05-10T10:37:14;6.25;;;4.68;;
43449;SDS011;29041;42.266;23.110;2023-05-10T10:43:21;5.75;;;3.53;;
43449;SDS011;29041;42.266;23.110;2023-05-10T10:46:10;5.68;;;3.92;;
43449;SDS011;29041;42.266;23.110;2023-05-10T10:49:09;5.32;;;4.50;;
43449;SDS011;29041;42.266;23.110;2023-05-10T10:55:08;8.30;;;4.47;;
43449;SDS011;29041;42.266;23.110;2023-05-10T10:57:56;5.20;;;4.03;;
43449;SDS011;29041;42.266;23.110;2023-05-10T11:00:47;7.85;;;3.92;;
43449;SDS011;29041;42.266;23.110;2023-05-10T11:03:35;5.95;;;4.28;;
43449;SDS011;29041;42.266;23.110;2023-05-10T11:06:30;5.82;;;3.63;;
43449;SDS011;29041;42.266;23.110;2023-05-10T11:09:19;5.63;;;3.63;;
43449;SDS011;29041;42.266;23.110;2023-05-10T11:12:18;5.45;;;4.30;;
43449;SDS011;29041;42.266;23.110;2023-05-10T11:15:08;4.82;;;3.47;;
43449;SDS011;29041;42.266;23.110;2023-05-10T11:20:27;4.82;;;3.38;;
43449;SDS011;29041;42.266;23.110;2023-05-10T11:23:20;5.60;;;3.90;;
43449;SDS011;29041;42.266;23.110;2023-05-10T11:26:07;5.32;;;4.15;;
43449;SDS011;29041;42.266;23.110;2023-05-10T11:28:55;8.93;;;4.65;;
43449;SDS011;29041;42.266;23.110;2023-05-10T11:31:42;7.72;;;4.28;;
43449;SDS011;29041;42.266;23.110;2023-05-10T11:34:30;8.13;;;5.25;;
43449;SDS011;29041;42.266;23.110;2023-05-10T11:37:19;7.18;;;5.30;;
43449;SDS011;29041;42.266;23.110;2023-05-10T11:40:13;14.45;;;6.30;;
43449;SDS011;29041;42.266;23.110;2023-05-10T11:43:00;7.75;;;5.47;;
43449;SDS011;29041;42.266;23.110;2023-05-10T11:45:48;10.70;;;4.97;;
43449;SDS011;29041;42.266;23.110;2023-05-10T11:48:35;11.20;;;4.65;;
43449;SDS011;29041;42.266;23.110;2023-05-10T11:51:32;6.93;;;4.70;;
43449;SDS011;29041;42.266;23.110;2023-05-10T11:54:24;6.78;;;5.30;;
43449;SDS011;29041;42.266;23.110;2023-05-10T11:57:13;9.25;;;6.43;;
43449;SDS011;29041;42.266;23.110;2023-05-10T12:00:00;8.70;;;5.22;;
43449;SDS011;29041;42.266;23.110;2023-05-10T12:02:49;6.07;;;4.65;;
43449;SDS011;29041;42.266;23.110;2023-05-10T12:05:37;10.27;;;5.80;;
43449;SDS011;29041;42.266;23.110;2023-05-10T12:08:26;5.95;;;4.72;;
43449;SDS011;29041;42.266;23.110;2023-05-10T12:14:30;6.70;;;5.20;;
43449;SDS011;29041;42.266;23.110;2023-05-10T12:17:27;8.68;;;4.22;;
43449;SDS011;29041;42.266;23.110;2023-05-10T12:20:15;6.70;;;4.82;;
43449;SDS011;29041;42.266;23.110;2023-05-10T12:23:02;6.78;;;4.88;;
43449;SDS011;29041;42.266;23.110;2023-05-10T12:25:50;7.85;;;5.38;;
43449;SDS011;29041;42.266;23.110;2023-05-10T12:28:39;7.00;;;5.07;;
43449;SDS011;29041;42.266;23.110;2023-05-10T12:31:32;9.02;;;5.00;;
43449;SDS011;29041;42.266;23.110;2023-05-10T12:34:25;7.15;;;5.10;;
43449;SDS011;29041;42.266;23.110;2023-05-10T12:37:13;7.57;;;4.80;;
43449;SDS011;29041;42.266;23.110;2023-05-10T12:40:06;12.25;;;5.05;;
43449;SDS011;29041;42.266;23.110;2023-05-10T12:42:56;7.50;;;5.07;;
43449;SDS011;29041;42.266;23.110;2023-05-10T12:48:14;6.18;;;4.50;;
43449;SDS011;29041;42.266;23.110;2023-05-10T12:51:02;6.40;;;5.63;;
43449;SDS011;29041;42.266;23.110;2023-05-10T12:53:49;5.72;;;4.32;;
43449;SDS011;29041;42.266;23.110;2023-05-10T12:56:40;7.28;;;4.68;;
43449;SDS011;29041;42.266;23.110;2023-05-10T12:59:28;7.45;;;4.80;;
43449;SDS011;29041;42.266;23.110;2023-05-10T13:02:15;7.47;;;4.47;;
43449;SDS011;29041;42.266;23.110;2023-05-10T13:05:05;6.65;;;4.53;;
43449;SDS011;29041;42.266;23.110;2023-05-10T13:07:52;8.95;;;5.05;;
43449;SDS011;29041;42.266;23.110;2023-05-10T13:10:46;10.40;;;5.05;;
43449;SDS011;29041;42.266;23.110;2023-05-10T13:13:33;11.52;;;6.22;;
43449;SDS011;29041;42.266;23.110;2023-05-10T13:16:20;8.57;;;4.65;;
43449;SDS011;29041;42.266;23.110;2023-05-10T13:19:08;11.73;;;5.38;;
43449;SDS011;29041;42.266;23.110;2023-05-10T13:21:56;10.27;;;5.93;;
43449;SDS011;29041;42.266;23.110;2023-05-10T13:24:43;8.73;;;5.10;;
43449;SDS011;29041;42.266;23.110;2023-05-10T13:27:30;8.98;;;4.88;;
43449;SDS011;29041;42.266;23.110;2023-05-10T13:30:17;7.50;;;4.82;;
43449;SDS011;29041;42.266;23.110;2023-05-10T13:33:04;6.32;;;4.30;;
43449;SDS011;29041;42.266;23.110;2023-05-10T13:35:51;8.55;;;4.50;;
43449;SDS011;29041;42.266;23.110;2023-05-10T13:38:39;7.18;;;4.57;;
43449;SDS011;29041;42.266;23.110;2023-05-10T13:41:26;6.50;;;4.55;;
43449;SDS011;29041;42.266;23.110;2023-05-10T13:44:13;7.50;;;5.00;;
43449;SDS011;29041;42.266;23.110;2023-05-10T13:47:00;7.57;;;4.70;;
43449;SDS011;29041;42.266;23.110;2023-05-10T13:49:47;9.77;;;4.43;;
43449;SDS011;29041;42.266;23.110;2023-05-10T13:52:35;5.28;;;4.18;;
43449;SDS011;29041;42.266;23.110;2023-05-10T13:55:40;5.28;;;3.70;;
43449;SDS011;29041;42.266;23.110;2023-05-10T13:58:36;10.90;;;5.43;;
43449;SDS011;29041;42.266;23.110;2023-05-10T14:01:23;5.80;;;4.43;;
43449;SDS011;29041;42.266;23.110;2023-05-10T14:04:13;5.63;;;4.22;;
43449;SDS011;29041;42.266;23.110;2023-05-10T14:07:02;8.45;;;5.53;;
43449;SDS011;29041;42.266;23.110;2023-05-10T14:09:58;6.25;;;4.20;;
43449;SDS011;29041;42.266;23.110;2023-05-10T14:12:53;6.63;;;4.85;;
43449;SDS011;29041;42.266;23.110;2023-05-10T14:15:40;6.53;;;4.18;;
43449;SDS011;29041;42.266;23.110;2023-05-10T14:18:28;5.53;;;3.95;;
43449;SDS011;29041;42.266;23.110;2023-05-10T14:21:15;6.15;;;4.35;;
43449;SDS011;29041;42.266;23.110;2023-05-10T14:24:05;6.18;;;4.25;;
43449;SDS011;29041;42.266;23.110;2023-05-10T14:27:01;10.18;;;5.40;;
43449;SDS011;29041;42.266;23.110;2023-05-10T14:29:54;7.07;;;4.72;;
43449;SDS011;29041;42.266;23.110;2023-05-10T14:32:49;7.20;;;4.85;;
43449;SDS011;29041;42.266;23.110;2023-05-10T14:35:39;8.98;;;5.47;;
43449;SDS011;29041;42.266;23.110;2023-05-10T14:38:31;5.20;;;4.20;;
43449;SDS011;29041;42.266;23.110;2023-05-10T14:41:19;6.68;;;4.68;;
43449;SDS011;29041;42.266;23.110;2023-05-10T14:44:08;5.38;;;3.42;;
43449;SDS011;29041;42.266;23.110;2023-05-10T14:46:57;8.20;;;4.30;;
43449;SDS011;29041;42.266;23.110;2023-05-10T14:49:44;11.20;;;3.83;;
43449;SDS011;29041;42.266;23.110;2023-05-10T14:52:30;8.73;;;4.20;;
43449;SDS011;29041;42.266;23.110;2023-05-10T14:55:18;7.00;;;4.35;;
43449;SDS011;29041;42.266;23.110;2023-05-10T14:58:05;7.22;;;3.90;;
43449;SDS011;29041;42.266;23.110;2023-05-10T15:00:52;6.53;;;3.55;;
43449;SDS011;29041;42.266;23.110;2023-05-10T15:03:43;4.90;;;3.47;;
43449;SDS011;29041;42.266;23.110;2023-05-10T15:06:30;7.80;;;4.63;;
43449;SDS011;29041;42.266;23.110;2023-05-10T15:09:18;7.18;;;4.63;;
43449;SDS011;29041;42.266;23.110;2023-05-10T15:12:05;5.85;;;3.95;;
43449;SDS011;29041;42.266;23.110;2023-05-10T15:14:52;8.02;;;4.38;;
43449;SDS011;29041;42.266;23.110;2023-05-10T15:17:42;6.70;;;3.95;;
43449;SDS011;29041;42.266;23.110;2023-05-10T15:20:38;10.43;;;4.80;;
43449;SDS011;29041;42.266;23.110;2023-05-10T15:23:27;7.22;;;4.32;;
43449;SDS011;29041;42.266;23.110;2023-05-10T15:28:52;6.38;;;4.25;;
43449;SDS011;29041;42.266;23.110;2023-05-10T15:31:41;8.35;;;3.83;;
43449;SDS011;29041;42.266;23.110;2023-05-10T15:34:28;7.00;;;4.50;;
43449;SDS011;29041;42.266;23.110;2023-05-10T15:37:16;5.32;;;4.38;;
43449;SDS011;29041;42.266;23.110;2023-05-10T15:40:21;6.30;;;4.50;;
43449;SDS011;29041;42.266;23.110;2023-05-10T15:43:09;7.28;;;4.38;;
43449;SDS011;29041;42.266;23.110;2023-05-10T15:46:00;8.25;;;5.18;;
43449;SDS011;29041;42.266;23.110;2023-05-10T15:48:49;6.97;;;5.10;;
43449;SDS011;29041;42.266;23.110;2023-05-10T15:51:36;5.57;;;4.50;;
43449;SDS011;29041;42.266;23.110;2023-05-10T15:54:24;6.88;;;4.63;;
43449;SDS011;29041;42.266;23.110;2023-05-10T15:57:12;7.07;;;5.30;;
43449;SDS011;29041;42.266;23.110;2023-05-10T16:00:02;9.52;;;5.03;;
43449;SDS011;29041;42.266;23.110;2023-05-10T16:02:50;8.07;;;4.70;;
43449;SDS011;29041;42.266;23.110;2023-05-10T16:05:37;8.90;;;4.85;;
43449;SDS011;29041;42.266;23.110;2023-05-10T16:08:26;9.07;;;5.05;;
43449;SDS011;29041;42.266;23.110;2023-05-10T16:11:21;7.75;;;4.25;;
43449;SDS011;29041;42.266;23.110;2023-05-10T16:14:08;10.98;;;5.18;;
43449;SDS011;29041;42.266;23.110;2023-05-10T16:16:56;5.38;;;4.18;;
43449;SDS011;29041;42.266;23.110;2023-05-10T16:19:44;6.60;;;4.53;;
43449;SDS011;29041;42.266;23.110;2023-05-10T16:22:32;7.70;;;4.85;;
43449;SDS011;29041;42.266;23.110;2023-05-10T16:25:29;6.60;;;4.22;;
43449;SDS011;29041;42.266;23.110;2023-05-10T16:28:17;6.82;;;4.32;;
43449;SDS011;29041;42.266;23.110;2023-05-10T16:31:05;8.38;;;4.65;;
43449;SDS011;29041;42.266;23.110;2023-05-10T16:33:52;6.40;;;4.40;;
43449;SDS011;29041;42.266;23.110;2023-05-10T16:36:39;6.07;;;4.45;;
43449;SDS011;29041;42.266;23.110;2023-05-10T16:39:26;6.90;;;4.60;;
43449;SDS011;29041;42.266;23.110;2023-05-10T16:42:13;8.02;;;5.00;;
43449;SDS011;29041;42.266;23.110;2023-05-10T16:45:01;8.75;;;4.57;;
43449;SDS011;29041;42.266;23.110;2023-05-10T16:47:52;8.88;;;5.22;;
43449;SDS011;29041;42.266;23.110;2023-05-10T16:50:41;7.93;;;3.90;;
43449;SDS011;29041;42.266;23.110;2023-05-10T16:53:28;4.40;;;3.72;;
43449;SDS011;29041;42.266;23.110;2023-05-10T16:56:16;8.10;;;4.90;;
43449;SDS011;29041;42.266;23.110;2023-05-10T16:59:06;7.90;;;4.10;;
43449;SDS011;29041;42.266;23.110;2023-05-10T17:01:54;7.32;;;5.20;;
43449;SDS011;29041;42.266;23.110;2023-05-10T17:04:41;8.20;;;5.00;;